Pittsville, WI (54466)

5:38 AM CDT on May 29, 2015 (GMT -0500)
WIDOT | | Change Station
CLOSE
Current Station
Personal Weather Station
Location: Pittsville, WI
Elevation: 1040 ft
Nearby Weather Stations

Elev 1040 ft 44.45 °N, 90.13 °W | Updated 22 hours ago

Cloudy
Cloudy
62 °F
Feels Like 62 °F
N
7
Wind Variable Wind from SSE
Gusts 13 mph

Today
High -- | Low -- °F
--% Chance of Precip.
Yesterday
High -- | Low -- °F
Precip. -- in
5:21 AM 8:35 PM
Waxing Gibbous, 83% visible
Pressure 29.96 in
Visibility 4.0 miles
Clouds Scattered Clouds 5000 ft
Mostly Cloudy 6500 ft
Overcast 8000 ft
Dew Point 57 °F
Humidity 83%
Rainfall in
Snow Depth Not available.
UV 0 out of 12
Pollen 8.50 out of 12
Air Quality Not available.
Flu Activity Sporadic
METAR KMFI 290954Z AUTO 18008KT 4SM RA SCT050 BKN065 OVC080 17/14 A2998 RMK AO2 SLP146 P0001 T01670139

More Conditions Fewer Conditions

Pressure 29.96 in
Visibility 4.0 miles
Clouds Scattered Clouds 5000 ft
Mostly Cloudy 6500 ft
Overcast 8000 ft
Dew Point 57 °F
Humidity 83%
Rainfall in
Snow Depth Not available.
UV 0 out of 12
Pollen 8.50 out of 12
Air Quality Not available.
Flu Activity Sporadic
METAR KMFI 290954Z AUTO 18008KT 4SM RA SCT050 BKN065 OVC080 17/14 A2998 RMK AO2 SLP146 P0001 T01670139

More Conditions Fewer Conditions

10-Day Weather Forecast

Almanac

Astronomy

May. 29, 2015 Rise Set
Actual Time
Civil Twilight
Nautical Twilight
Astronomical Twilight
Moon
Length of Visible Light
Length of Day
Tomorrow will be .
, % of the Moon is Illuminated

Today's Extremes

State Highs State Lows

Community

WunderPhotos

Upload Photos

1,825,228 photos uploaded!

WunderBlogs® & News

Nearby

Air Quality

  Air Quality AQ Index Pollutant
Not available.

Snow Depth

Station Depth Elevation

Earthquake Activity

City Distance Mag. Time & Date
Minimum magnitude displayed is 2.5.

Coastal Water Temperatures

Place Temperature

Stations

Nearby Weather Stations

Station Location Temp. Windchill Dew Point Humidity Wind Precip. Elev Updated Type